sensor_id;sensor_type;location;lat;lon;timestamp;pressure;altitude;pressure_sealevel;temperature;humidity
54439;BME280;40347;53.848;27.498;2023-08-01T00:00:35;1006.7;;;17.2;89
54439;BME280;40347;53.848;27.498;2023-08-01T00:05:27;1006.7;;;17.2;88.7
54439;BME280;40347;53.848;27.498;2023-08-01T00:10:25;1006.7;;;17.2;88.2
54439;BME280;40347;53.848;27.498;2023-08-01T00:15:11;1006.7;;;17.1;88.1
54439;BME280;40347;53.848;27.498;2023-08-01T00:20:11;1006.7;;;17.1;88.3
54439;BME280;40347;53.848;27.498;2023-08-01T00:25:11;1006.8;;;17.1;88.5
54439;BME280;40347;53.848;27.498;2023-08-01T00:30:11;1006.7;;;17.2;88.5
54439;BME280;40347;53.848;27.498;2023-08-01T00:35:11;1006.7;;;17.1;88.3
54439;BME280;40347;53.848;27.498;2023-08-01T00:40:11;1006.7;;;17;87.8
54439;BME280;40347;53.848;27.498;2023-08-01T00:45:27;1006.7;;;16.9;88.1
54439;BME280;40347;53.848;27.498;2023-08-01T00:50:11;1006.6;;;16.8;88.4
54439;BME280;40347;53.848;27.498;2023-08-01T00:55:11;1006.5;;;16.8;88.6
54439;BME280;40347;53.848;27.498;2023-08-01T01:00:19;1006.5;;;16.7;88.6
54439;BME280;40347;53.848;27.498;2023-08-01T01:05:11;1006.5;;;16.6;88.6
54439;BME280;40347;53.848;27.498;2023-08-01T01:10:25;1006.5;;;16.6;88.6
54439;BME280;40347;53.848;27.498;2023-08-01T01:15:11;1006.5;;;16.5;89
54439;BME280;40347;53.848;27.498;2023-08-01T01:20:41;1006.5;;;16.4;89.2
54439;BME280;40347;53.848;27.498;2023-08-01T01:25:39;1006.5;;;16.5;89.5
54439;BME280;40347;53.848;27.498;2023-08-01T01:30:11;1006.5;;;16.5;89.6
54439;BME280;40347;53.848;27.498;2023-08-01T01:35:33;1006.5;;;16.5;89.8
54439;BME280;40347;53.848;27.498;2023-08-01T01:40:11;1006.5;;;16.5;89.6
54439;BME280;40347;53.848;27.498;2023-08-01T01:45:45;1006.5;;;16.5;89.8
54439;BME280;40347;53.848;27.498;2023-08-01T01:50:31;1006.4;;;16.5;89.8
54439;BME280;40347;53.848;27.498;2023-08-01T01:55:11;1006.4;;;16.4;89.8
54439;BME280;40347;53.848;27.498;2023-08-01T02:00:25;1006.3;;;16.4;89.6
54439;BME280;40347;53.848;27.498;2023-08-01T02:05:11;1006.3;;;16.3;89.5
54439;BME280;40347;53.848;27.498;2023-08-01T02:10:11;1006.3;;;16.3;89.5
54439;BME280;40347;53.848;27.498;2023-08-01T02:15:11;1006.3;;;16.2;89.8
54439;BME280;40347;53.848;27.498;2023-08-01T02:20:25;1006.3;;;16.2;90
54439;BME280;40347;53.848;27.498;2023-08-01T02:25:23;1006.3;;;16.2;90
54439;BME280;40347;53.848;27.498;2023-08-01T02:30:25;1006.2;;;16.2;89.8
54439;BME280;40347;53.848;27.498;2023-08-01T02:35:27;1006.2;;;16.1;89.9
54439;BME280;40347;53.848;27.498;2023-08-01T02:40:12;1006.3;;;16;89.7
54439;BME280;40347;53.848;27.498;2023-08-01T02:45:31;1006.3;;;16.1;90.1
54439;BME280;40347;53.848;27.498;2023-08-01T02:50:11;1006.4;;;16.1;90.1
54439;BME280;40347;53.848;27.498;2023-08-01T02:55:27;1006.4;;;16.1;90
54439;BME280;40347;53.848;27.498;2023-08-01T03:00:27;1006.4;;;16.1;89.8
54439;BME280;40347;53.848;27.498;2023-08-01T03:05:25;1006.4;;;16.2;90
54439;BME280;40347;53.848;27.498;2023-08-01T03:10:11;1006.4;;;16.3;90.3
54439;BME280;40347;53.848;27.498;2023-08-01T03:15:33;1006.4;;;16.6;90.6
54439;BME280;40347;53.848;27.498;2023-08-01T03:20:31;1006.4;;;16.8;90.6
54439;BME280;40347;53.848;27.498;2023-08-01T03:25:25;1006.4;;;17.2;90.3
54439;BME280;40347;53.848;27.498;2023-08-01T03:31:05;1006.4;;;17.4;89.8
54439;BME280;40347;53.848;27.498;2023-08-01T03:35:11;1006.4;;;17.7;89.4
54439;BME280;40347;53.848;27.498;2023-08-01T03:40:25;1006.4;;;17.9;89
54439;BME280;40347;53.848;27.498;2023-08-01T03:45:27;1006.3;;;18.1;88.6
54439;BME280;40347;53.848;27.498;2023-08-01T03:50:11;1006.3;;;18.3;87.6
54439;BME280;40347;53.848;27.498;2023-08-01T03:55:25;1006.3;;;18.4;86.4
54439;BME280;40347;53.848;27.498;2023-08-01T04:00:39;1006.3;;;18.3;85.6
54439;BME280;40347;53.848;27.498;2023-08-01T04:05:25;1006.3;;;18.2;85.6
54439;BME280;40347;53.848;27.498;2023-08-01T04:10:27;1006.3;;;18.2;85.7
54439;BME280;40347;53.848;27.498;2023-08-01T04:15:39;1006.3;;;18.2;85.7
54439;BME280;40347;53.848;27.498;2023-08-01T04:20:11;1006.3;;;18.3;85.6
54439;BME280;40347;53.848;27.498;2023-08-01T04:25:33;1006.3;;;18.8;85
54439;BME280;40347;53.848;27.498;2023-08-01T04:30:11;1006.3;;;19;83.5
54439;BME280;40347;53.848;27.498;2023-08-01T04:35:11;1006.3;;;19.1;83.1
54439;BME280;40347;53.848;27.498;2023-08-01T04:40:11;1006.2;;;19.3;83.1
54439;BME280;40347;53.848;27.498;2023-08-01T04:45:11;1006.2;;;19.7;82.5
54439;BME280;40347;53.848;27.498;2023-08-01T04:50:11;1006.3;;;20.2;81.1
54439;BME280;40347;53.848;27.498;2023-08-01T04:55:11;1006.3;;;20.9;79.4
54439;BME280;40347;53.848;27.498;2023-08-01T05:00:12;1006.4;;;21.5;77
54439;BME280;40347;53.848;27.498;2023-08-01T05:05:41;1006.3;;;21.7;76
54439;BME280;40347;53.848;27.498;2023-08-01T05:10:11;1006.3;;;21.9;76.1
54439;BME280;40347;53.848;27.498;2023-08-01T05:15:27;1006.2;;;22.1;75.7
54439;BME280;40347;53.848;27.498;2023-08-01T05:20:31;1006.1;;;22.4;75
54439;BME280;40347;53.848;27.498;2023-08-01T05:25:33;1006.1;;;22.5;74.1
54439;BME280;40347;53.848;27.498;2023-08-01T05:30:11;1006.1;;;22.5;73.7
54439;BME280;40347;53.848;27.498;2023-08-01T05:35:11;1006.1;;;22.4;73.9
54439;BME280;40347;53.848;27.498;2023-08-01T05:40:37;1006.1;;;22.3;72.8
54439;BME280;40347;53.848;27.498;2023-08-01T05:45:33;1006.1;;;22.7;72.7
54439;BME280;40347;53.848;27.498;2023-08-01T05:50:11;1006.1;;;23;71.8
54439;BME280;40347;53.848;27.498;2023-08-01T05:55:25;1006.1;;;23;70.7
54439;BME280;40347;53.848;27.498;2023-08-01T06:00:17;1006.1;;;22.8;70.3
54439;BME280;40347;53.848;27.498;2023-08-01T06:05:11;1006.1;;;22.8;70.3
54439;BME280;40347;53.848;27.498;2023-08-01T06:10:11;1006.1;;;22.6;70
54439;BME280;40347;53.848;27.498;2023-08-01T06:15:11;1006;;;22.6;69.4
54439;BME280;40347;53.848;27.498;2023-08-01T06:20:25;1006;;;22.6;69.3
54439;BME280;40347;53.848;27.498;2023-08-01T06:25:25;1006.1;;;22.6;68.5
54439;BME280;40347;53.848;27.498;2023-08-01T06:30:11;1006.1;;;22.7;67.1
54439;BME280;40347;53.848;27.498;2023-08-01T06:35:31;1006.1;;;22.8;67.3
54439;BME280;40347;53.848;27.498;2023-08-01T06:40:57;1006.1;;;22.8;66.7
54439;BME280;40347;53.848;27.498;2023-08-01T06:45:25;1006.1;;;22.9;66.4
54439;BME280;40347;53.848;27.498;2023-08-01T06:50:11;1006.1;;;23;65.8
54439;BME280;40347;53.848;27.498;2023-08-01T06:55:42;1006;;;23.2;65.5
54439;BME280;40347;53.848;27.498;2023-08-01T07:00:41;1006.1;;;23.4;65.5
54439;BME280;40347;53.848;27.498;2023-08-01T07:05:31;1006.1;;;23.6;64
54439;BME280;40347;53.848;27.498;2023-08-01T07:10:17;1006.1;;;23.6;63
54439;BME280;40347;53.848;27.498;2023-08-01T07:15:39;1006.1;;;23.8;63.2
54439;BME280;40347;53.848;27.498;2023-08-01T07:20:27;1006.1;;;24;63.7
54439;BME280;40347;53.848;27.498;2023-08-01T07:25:11;1006.1;;;24.2;63.3
54439;BME280;40347;53.848;27.498;2023-08-01T07:30:31;1006;;;24.3;62.7
54439;BME280;40347;53.848;27.498;2023-08-01T07:35:39;1006;;;24.4;61.4
54439;BME280;40347;53.848;27.498;2023-08-01T07:41:04;1006;;;24.5;60.9
54439;BME280;40347;53.848;27.498;2023-08-01T07:46:05;1006;;;24.8;59.4
54439;BME280;40347;53.848;27.498;2023-08-01T07:50:11;1006;;;24.9;59.2
54439;BME280;40347;53.848;27.498;2023-08-01T07:55:25;1006;;;24.9;59.6
54439;BME280;40347;53.848;27.498;2023-08-01T08:00:27;1005.9;;;25.1;59.4
54439;BME280;40347;53.848;27.498;2023-08-01T08:05:17;1005.9;;;25.2;59.7
54439;BME280;40347;53.848;27.498;2023-08-01T08:10:39;1005.9;;;25.2;59.7
54439;BME280;40347;53.848;27.498;2023-08-01T08:15:11;1005.9;;;25.2;59.2
54439;BME280;40347;53.848;27.498;2023-08-01T08:20:25;1005.8;;;25.3;58.8
54439;BME280;40347;53.848;27.498;2023-08-01T08:25:25;1005.8;;;25.4;58.4
54439;BME280;40347;53.848;27.498;2023-08-01T08:30:12;1005.8;;;25.4;58.2
54439;BME280;40347;53.848;27.498;2023-08-01T08:35:25;1005.8;;;25.6;58.1
54439;BME280;40347;53.848;27.498;2023-08-01T08:40:25;1005.8;;;25.9;57.1
54439;BME280;40347;53.848;27.498;2023-08-01T08:45:32;1005.7;;;26.2;56.5
54439;BME280;40347;53.848;27.498;2023-08-01T08:50:27;1005.7;;;26.4;56.3
54439;BME280;40347;53.848;27.498;2023-08-01T08:55:25;1005.7;;;26.8;55.6
54439;BME280;40347;53.848;27.498;2023-08-01T09:00:12;1005.6;;;26.9;55.3
54439;BME280;40347;53.848;27.498;2023-08-01T09:05:12;1005.6;;;27.1;55.6
54439;BME280;40347;53.848;27.498;2023-08-01T09:10:40;1005.6;;;27;54.4
54439;BME280;40347;53.848;27.498;2023-08-01T09:15:26;1005.5;;;26.9;54.8
54439;BME280;40347;53.848;27.498;2023-08-01T09:20:18;1005.5;;;26.5;54.9
54439;BME280;40347;53.848;27.498;2023-08-01T09:25:32;1005.4;;;26;55.5
54439;BME280;40347;53.848;27.498;2023-08-01T09:30:45;1005.3;;;26.3;55.7
54439;BME280;40347;53.848;27.498;2023-08-01T09:35:40;1005.3;;;26.6;54.5
54439;BME280;40347;53.848;27.498;2023-08-01T09:40:35;1005.3;;;26.6;54.7
54439;BME280;40347;53.848;27.498;2023-08-01T09:45:26;1005.2;;;26.6;54.3
54439;BME280;40347;53.848;27.498;2023-08-01T09:50:34;1005.2;;;26.5;54.5
54439;BME280;40347;53.848;27.498;2023-08-01T09:55:12;1005.1;;;26.6;54.2
54439;BME280;40347;53.848;27.498;2023-08-01T10:00:18;1005.1;;;26.8;54
54439;BME280;40347;53.848;27.498;2023-08-01T10:05:38;1005.1;;;26.8;53.3
54439;BME280;40347;53.848;27.498;2023-08-01T10:10:12;1005.1;;;26.7;52.6
54439;BME280;40347;53.848;27.498;2023-08-01T10:15:12;1005;;;26.8;52.7
54439;BME280;40347;53.848;27.498;2023-08-01T10:20:26;1004.9;;;26.9;52
54439;BME280;40347;53.848;27.498;2023-08-01T10:25:30;1004.8;;;26.9;51
54439;BME280;40347;53.848;27.498;2023-08-01T10:30:25;1004.9;;;26.9;51.6
54439;BME280;40347;53.848;27.498;2023-08-01T10:35:12;1004.8;;;26.7;52.2
54439;BME280;40347;53.848;27.498;2023-08-01T10:40:32;1004.7;;;26.7;52.2
54439;BME280;40347;53.848;27.498;2023-08-01T10:45:28;1004.7;;;26.7;51.9
54439;BME280;40347;53.848;27.498;2023-08-01T10:50:13;1004.7;;;26.6;52.3
54439;BME280;40347;53.848;27.498;2023-08-01T10:55:12;1004.6;;;26.6;52.1
54439;BME280;40347;53.848;27.498;2023-08-01T11:00:19;1004.6;;;26.7;52.1
54439;BME280;40347;53.848;27.498;2023-08-01T11:05:12;1004.5;;;26.7;51.9
54439;BME280;40347;53.848;27.498;2023-08-01T11:10:18;1004.5;;;26.7;52.2
54439;BME280;40347;53.848;27.498;2023-08-01T11:15:29;1004.5;;;26.9;52
54439;BME280;40347;53.848;27.498;2023-08-01T11:20:42;1004.5;;;27.1;51.6
54439;BME280;40347;53.848;27.498;2023-08-01T11:25:32;1004.5;;;27.1;51.5
54439;BME280;40347;53.848;27.498;2023-08-01T11:30:40;1004.4;;;27.3;51
54439;BME280;40347;53.848;27.498;2023-08-01T11:35:32;1004.4;;;27.6;50.8
54439;BME280;40347;53.848;27.498;2023-08-01T11:40:26;1004.4;;;27.6;50.1
54439;BME280;40347;53.848;27.498;2023-08-01T11:45:24;1004.2;;;27.6;49.9
54439;BME280;40347;53.848;27.498;2023-08-01T11:50:30;1004.2;;;27.8;50
54439;BME280;40347;53.848;27.498;2023-08-01T11:55:18;1004.1;;;27.7;50
54439;BME280;40347;53.848;27.498;2023-08-01T12:00:12;1004;;;27.7;50.1
54439;BME280;40347;53.848;27.498;2023-08-01T12:05:21;1004;;;27.7;50.5
54439;BME280;40347;53.848;27.498;2023-08-01T12:10:36;1004;;;27.7;50.1
54439;BME280;40347;53.848;27.498;2023-08-01T12:15:38;1004;;;27.8;50
54439;BME280;40347;53.848;27.498;2023-08-01T12:20:28;1004;;;27.9;49.5
54439;BME280;40347;53.848;27.498;2023-08-01T12:25:42;1004;;;27.9;49
54439;BME280;40347;53.848;27.498;2023-08-01T12:30:12;1003.9;;;27.8;49.4
54439;BME280;40347;53.848;27.498;2023-08-01T12:35:27;1003.9;;;27.8;49.4
54439;BME280;40347;53.848;27.498;2023-08-01T12:40:34;1003.8;;;27.7;49.5
54439;BME280;40347;53.848;27.498;2023-08-01T12:45:56;1003.8;;;27.9;49
54439;BME280;40347;53.848;27.498;2023-08-01T12:50:24;1003.7;;;28;48.5
54439;BME280;40347;53.848;27.498;2023-08-01T12:55:12;1003.7;;;28;47.5
54439;BME280;40347;53.848;27.498;2023-08-01T13:00:42;1003.7;;;28.3;47.2
54439;BME280;40347;53.848;27.498;2023-08-01T13:05:26;1003.7;;;28.7;47
54439;BME280;40347;53.848;27.498;2023-08-01T13:10:22;1003.6;;;29;46.3
54439;BME280;40347;53.848;27.498;2023-08-01T13:15:12;1003.6;;;28.9;45.8
54439;BME280;40347;53.848;27.498;2023-08-01T13:20:13;1003.6;;;28.7;45.6
54439;BME280;40347;53.848;27.498;2023-08-01T13:25:48;1003.6;;;28.6;45.8
54439;BME280;40347;53.848;27.498;2023-08-01T13:30:34;1003.5;;;28.6;46.3
54439;BME280;40347;53.848;27.498;2023-08-01T13:35:13;1003.5;;;28.5;45.6
54439;BME280;40347;53.848;27.498;2023-08-01T13:40:12;1003.5;;;28.1;45.4
54439;BME280;40347;53.848;27.498;2023-08-01T13:45:18;1003.5;;;27.8;45.8
54439;BME280;40347;53.848;27.498;2023-08-01T13:50:24;1003.4;;;27.5;46.7
54439;BME280;40347;53.848;27.498;2023-08-01T13:55:12;1003.4;;;27.3;46.8
54439;BME280;40347;53.848;27.498;2023-08-01T14:00:12;1003.4;;;27.3;46.7
54439;BME280;40347;53.848;27.498;2023-08-01T14:05:28;1003.4;;;27.4;46.2
54439;BME280;40347;53.848;27.498;2023-08-01T14:10:12;1003.3;;;27.3;46.5
54439;BME280;40347;53.848;27.498;2023-08-01T14:15:34;1003.2;;;27.1;46.9
54439;BME280;40347;53.848;27.498;2023-08-01T14:20:46;1003.2;;;27;47.5
54439;BME280;40347;53.848;27.498;2023-08-01T14:25:30;1003.2;;;26.8;48
54439;BME280;40347;53.848;27.498;2023-08-01T14:30:12;1003.1;;;26.9;48.3
54439;BME280;40347;53.848;27.498;2023-08-01T14:35:36;1003;;;27;48.1
54439;BME280;40347;53.848;27.498;2023-08-01T14:40:26;1003;;;27;47.9
54439;BME280;40347;53.848;27.498;2023-08-01T14:45:32;1003;;;26.8;47.3
54439;BME280;40347;53.848;27.498;2023-08-01T14:50:26;1002.9;;;26.7;47.8
54439;BME280;40347;53.848;27.498;2023-08-01T14:55:38;1002.9;;;26.5;48.1
54439;BME280;40347;53.848;27.498;2023-08-01T15:00:22;1003;;;26.4;48.5
54439;BME280;40347;53.848;27.498;2023-08-01T15:05:18;1002.9;;;26.4;48.1
54439;BME280;40347;53.848;27.498;2023-08-01T15:10:26;1002.9;;;26.2;48.3
54439;BME280;40347;53.848;27.498;2023-08-01T15:15:22;1002.9;;;26;48.1
54439;BME280;40347;53.848;27.498;2023-08-01T15:20:24;1002.8;;;25.9;48.4
54439;BME280;40347;53.848;27.498;2023-08-01T15:25:12;1002.8;;;25.7;49.2
54439;BME280;40347;53.848;27.498;2023-08-01T15:30:12;1002.7;;;25.6;49.3
54439;BME280;40347;53.848;27.498;2023-08-01T15:35:12;1002.7;;;25.5;49.4
54439;BME280;40347;53.848;27.498;2023-08-01T15:40:12;1002.7;;;25.4;49.5
54439;BME280;40347;53.848;27.498;2023-08-01T15:45:26;1002.7;;;25.2;49.1
54439;BME280;40347;53.848;27.498;2023-08-01T15:50:12;1002.7;;;25.2;49.3
54439;BME280;40347;53.848;27.498;2023-08-01T15:55:12;1002.7;;;25;49.3
54439;BME280;40347;53.848;27.498;2023-08-01T16:00:12;1002.7;;;24.9;49.9
54439;BME280;40347;53.848;27.498;2023-08-01T16:05:36;1002.7;;;24.8;50.2
54439;BME280;40347;53.848;27.498;2023-08-01T16:10:36;1002.7;;;24.7;50.8
54439;BME280;40347;53.848;27.498;2023-08-01T16:15:12;1002.7;;;24.7;50.9
54439;BME280;40347;53.848;27.498;2023-08-01T16:20:24;1002.7;;;24.6;51.5
54439;BME280;40347;53.848;27.498;2023-08-01T16:25:12;1002.7;;;24.6;51.7
54439;BME280;40347;53.848;27.498;2023-08-01T16:30:36;1002.6;;;24.6;51.9
54439;BME280;40347;53.848;27.498;2023-08-01T16:35:32;1002.6;;;24.5;52
54439;BME280;40347;53.848;27.498;2023-08-01T16:40:22;1002.6;;;24.5;52.4
54439;BME280;40347;53.848;27.498;2023-08-01T16:45:24;1002.6;;;24.4;52.9
54439;BME280;40347;53.848;27.498;2023-08-01T16:50:28;1002.7;;;24.3;53.3
54439;BME280;40347;53.848;27.498;2023-08-01T16:55:20;1002.7;;;24.3;53.5
54439;BME280;40347;53.848;27.498;2023-08-01T17:00:13;1002.7;;;24.2;53.8
54439;BME280;40347;53.848;27.498;2023-08-01T17:05:36;1002.8;;;24.1;54.1
54439;BME280;40347;53.848;27.498;2023-08-01T17:10:22;1002.8;;;23.9;54.7
54439;BME280;40347;53.848;27.498;2023-08-01T17:15:22;1002.8;;;23.7;55.1
54439;BME280;40347;53.848;27.498;2023-08-01T17:20:40;1002.8;;;23.6;55.5
54439;BME280;40347;53.848;27.498;2023-08-01T17:25:40;1002.9;;;23.5;55.9
54439;BME280;40347;53.848;27.498;2023-08-01T17:30:12;1002.8;;;23.4;56
54439;BME280;40347;53.848;27.498;2023-08-01T17:35:30;1002.8;;;23.3;56.4
54439;BME280;40347;53.848;27.498;2023-08-01T17:40:50;1002.8;;;23.2;56.8
54439;BME280;40347;53.848;27.498;2023-08-01T17:45:12;1002.8;;;23.1;57.1
54439;BME280;40347;53.848;27.498;2023-08-01T17:50:40;1002.8;;;23;57.5
54439;BME280;40347;53.848;27.498;2023-08-01T17:55:28;1002.7;;;22.9;57.7
54439;BME280;40347;53.848;27.498;2023-08-01T18:00:24;1002.7;;;22.9;57.8
54439;BME280;40347;53.848;27.498;2023-08-01T18:05:24;1002.7;;;22.8;58.3
54439;BME280;40347;53.848;27.498;2023-08-01T18:10:22;1002.7;;;22.6;58.9
54439;BME280;40347;53.848;27.498;2023-08-01T18:15:12;1002.7;;;22.6;59.4
54439;BME280;40347;53.848;27.498;2023-08-01T18:20:22;1002.7;;;22.6;59.8
54439;BME280;40347;53.848;27.498;2023-08-01T18:25:38;1002.7;;;22.5;60.4
54439;BME280;40347;53.848;27.498;2023-08-01T18:30:28;1002.7;;;22.4;60.7
54439;BME280;40347;53.848;27.498;2023-08-01T18:35:44;1002.7;;;22.3;61.2
54439;BME280;40347;53.848;27.498;2023-08-01T18:40:20;1002.7;;;22.2;61.9
54439;BME280;40347;53.848;27.498;2023-08-01T18:45:30;1002.7;;;22.2;62.5
54439;BME280;40347;53.848;27.498;2023-08-01T18:50:12;1002.7;;;22.1;62.6
54439;BME280;40347;53.848;27.498;2023-08-01T18:55:26;1002.7;;;22.1;62.8
54439;BME280;40347;53.848;27.498;2023-08-01T19:00:12;1002.6;;;22.1;63.1
54439;BME280;40347;53.848;27.498;2023-08-01T19:05:12;1002.7;;;22.1;63.2
54439;BME280;40347;53.848;27.498;2023-08-01T19:10:34;1002.7;;;22;63.7
54439;BME280;40347;53.848;27.498;2023-08-01T19:15:26;1002.7;;;22;64
54439;BME280;40347;53.848;27.498;2023-08-01T19:20:20;1002.7;;;22;64
54439;BME280;40347;53.848;27.498;2023-08-01T19:25:20;1002.7;;;22;64.2
54439;BME280;40347;53.848;27.498;2023-08-01T19:30:28;1002.7;;;22;64.2
54439;BME280;40347;53.848;27.498;2023-08-01T19:35:42;1002.7;;;22.1;64.4
54439;BME280;40347;53.848;27.498;2023-08-01T19:40:26;1002.7;;;22.1;64.5
54439;BME280;40347;53.848;27.498;2023-08-01T19:45:12;1002.7;;;22;64.9
54439;BME280;40347;53.848;27.498;2023-08-01T19:50:12;1002.7;;;22.1;64.8
54439;BME280;40347;53.848;27.498;2023-08-01T19:55:12;1002.8;;;22.1;64.9
54439;BME280;40347;53.848;27.498;2023-08-01T20:00:28;1002.8;;;22;65.1
54439;BME280;40347;53.848;27.498;2023-08-01T20:05:28;1002.8;;;22;65.2
54439;BME280;40347;53.848;27.498;2023-08-01T20:10:38;1002.9;;;22;65.7
54439;BME280;40347;53.848;27.498;2023-08-01T20:15:12;1002.9;;;22;65.9
54439;BME280;40347;53.848;27.498;2023-08-01T20:20:20;1002.9;;;22.1;65.9
54439;BME280;40347;53.848;27.498;2023-08-01T20:25:20;1002.9;;;22;66
54439;BME280;40347;53.848;27.498;2023-08-01T20:30:22;1002.9;;;22;66
54439;BME280;40347;53.848;27.498;2023-08-01T20:35:12;1002.9;;;22;66.2
54439;BME280;40347;53.848;27.498;2023-08-01T20:40:26;1002.8;;;22;66.5
54439;BME280;40347;53.848;27.498;2023-08-01T20:45:12;1002.9;;;21.9;66.6
54439;BME280;40347;53.848;27.498;2023-08-01T20:50:24;1002.9;;;21.9;66.7
54439;BME280;40347;53.848;27.498;2023-08-01T20:55:18;1002.9;;;21.9;66.7
54439;BME280;40347;53.848;27.498;2023-08-01T21:00:34;1002.9;;;21.8;67.1
54439;BME280;40347;53.848;27.498;2023-08-01T21:05:12;1002.9;;;21.8;67.3
54439;BME280;40347;53.848;27.498;2023-08-01T21:10:42;1002.8;;;21.8;67.5
54439;BME280;40347;53.848;27.498;2023-08-01T21:15:28;1002.8;;;21.8;67.6
54439;BME280;40347;53.848;27.498;2023-08-01T21:20:26;1002.8;;;21.8;67.8
54439;BME280;40347;53.848;27.498;2023-08-01T21:25:42;1002.8;;;21.7;68
54439;BME280;40347;53.848;27.498;2023-08-01T21:30:36;1002.8;;;21.7;68
54439;BME280;40347;53.848;27.498;2023-08-01T21:35:28;1002.7;;;21.7;68.2
54439;BME280;40347;53.848;27.498;2023-08-01T21:40:36;1002.7;;;21.7;68.1
54439;BME280;40347;53.848;27.498;2023-08-01T21:45:12;1002.7;;;21.7;68.2
54439;BME280;40347;53.848;27.498;2023-08-01T21:50:28;1002.7;;;21.8;68.2
54439;BME280;40347;53.848;27.498;2023-08-01T21:55:36;1002.7;;;21.7;68.1
54439;BME280;40347;53.848;27.498;2023-08-01T22:00:20;1002.6;;;21.7;68.4
54439;BME280;40347;53.848;27.498;2023-08-01T22:05:12;1002.6;;;21.7;68.4
54439;BME280;40347;53.848;27.498;2023-08-01T22:10:22;1002.6;;;21.7;68.7
54439;BME280;40347;53.848;27.498;2023-08-01T22:15:40;1002.6;;;21.8;68.5
54439;BME280;40347;53.848;27.498;2023-08-01T22:20:24;1002.6;;;21.8;68.2
54439;BME280;40347;53.848;27.498;2023-08-01T22:25:26;1002.5;;;21.7;68.5
54439;BME280;40347;53.848;27.498;2023-08-01T22:30:26;1002.5;;;21.7;68.7
54439;BME280;40347;53.848;27.498;2023-08-01T22:35:12;1002.6;;;21.7;68.9
54439;BME280;40347;53.848;27.498;2023-08-01T22:40:28;1003;;;21.7;69.5
54439;BME280;40347;53.848;27.498;2023-08-01T22:45:12;1002.9;;;21.5;70.3
54439;BME280;40347;53.848;27.498;2023-08-01T22:50:12;1003.1;;;21.4;70.5
54439;BME280;40347;53.848;27.498;2023-08-01T22:55:28;1003.2;;;21.2;71.6
54439;BME280;40347;53.848;27.498;2023-08-01T23:00:12;1003.1;;;21;73.5
54439;BME280;40347;53.848;27.498;2023-08-01T23:05:22;1003.2;;;20.7;75.7
54439;BME280;40347;53.848;27.498;2023-08-01T23:10:12;1003.2;;;20.4;77
54439;BME280;40347;53.848;27.498;2023-08-01T23:15:20;1003.1;;;20.2;78.6
54439;BME280;40347;53.848;27.498;2023-08-01T23:20:12;1003;;;20;79.3
54439;BME280;40347;53.848;27.498;2023-08-01T23:25:38;1002.8;;;19.9;80.7
54439;BME280;40347;53.848;27.498;2023-08-01T23:30:28;1002.7;;;19.7;81.5
54439;BME280;40347;53.848;27.498;2023-08-01T23:35:26;1002.7;;;19.7;82.7
54439;BME280;40347;53.848;27.498;2023-08-01T23:40:28;1002.8;;;19.7;83.7
54439;BME280;40347;53.848;27.498;2023-08-01T23:45:30;1002.9;;;19.6;84.3
54439;BME280;40347;53.848;27.498;2023-08-01T23:50:46;1002.8;;;19.5;84.1
54439;BME280;40347;53.848;27.498;2023-08-01T23:55:12;1002.7;;;19.5;84.6
